Time;durP1;ratioP1;P1;durP2;ratioP2;P2;SDS_P1;SDS_P2;PMS_P1;PMS_P2;Temp;Humidity;BMP_temperature;BMP_pressure;BME280_temperature;BME280_humidity;BME280_pressure;Samples;Min_cycle;Max_cycle;Signal;HPM_P1;HPM_P2
2023/06/24 00:01:25;;;;;;;0.20;0.20;;;;;;;16.83;89.50;99037.81;5094183;28;20104;-70
2023/06/24 00:03:53;;;;;;;0.10;0.10;;;;;;;16.82;89.50;99050.00;5050681;28;20043;-69
2023/06/24 00:06:22;;;;;;;0.20;0.20;;;;;;;16.83;89.08;99050.81;5080264;28;20051;-71
2023/06/24 00:08:49;;;;;;;0.20;0.20;;;;;;;16.82;89.93;99046.44;5082199;28;20040;-69
2023/06/24 00:11:15;;;;;;;0.20;0.20;;;;;;;16.80;90.09;99043.22;5084282;28;20067;-71
2023/06/24 00:13:43;;;;;;;0.20;0.20;;;;;;;16.76;90.53;99048.59;5062817;28;20546;-69
2023/06/24 00:16:09;;;;;;;;;;;;;;;16.74;91.06;99039.84;5085446;28;20506;-70
2023/06/24 00:18:36;;;;;;;0.20;0.20;;;;;;;16.73;90.76;99041.78;5096833;28;19927;-71
2023/06/24 00:21:02;;;;;;;0.20;0.20;;;;;;;16.70;90.81;99041.63;5083458;28;20493;-71
2023/06/24 00:23:34;;;;;;;0.20;0.20;;;;;;;16.65;90.70;99045.41;5087465;28;20035;-70
2023/06/24 00:26:01;;;;;;;0.20;0.20;;;;;;;16.63;90.67;99047.72;5090022;28;20584;-70
2023/06/24 00:28:27;;;;;;;0.20;0.20;;;;;;;16.59;91.14;99042.03;5081827;28;20071;-69
2023/06/24 00:30:54;;;;;;;0.20;0.20;;;;;;;16.54;91.19;99042.22;5088170;28;20513;-71
2023/06/24 00:33:20;;;;;;;0.20;0.20;;;;;;;16.49;91.11;99049.91;5101457;28;20075;-70
2023/06/24 00:35:47;;;;;;;0.20;0.20;;;;;;;16.44;91.46;99048.13;5102334;28;20054;-69
2023/06/24 00:38:15;;;;;;;0.20;0.20;;;;;;;16.41;91.86;99037.75;5091596;28;20067;-72
2023/06/24 00:40:43;;;;;;;0.10;0.10;;;;;;;16.38;91.76;99032.88;5081830;28;20394;-72
2023/06/24 00:43:10;;;;;;;0.20;0.20;;;;;;;16.35;91.84;99036.31;5081720;28;20052;-71
2023/06/24 00:45:37;;;;;;;0.20;0.20;;;;;;;16.30;92.45;99032.63;5067712;28;20522;-71
2023/06/24 00:48:03;;;;;;;0.20;0.20;;;;;;;16.30;92.29;99032.63;5072131;28;20051;-69
2023/06/24 00:50:29;;;;;;;0.20;0.20;;;;;;;16.31;91.72;99030.66;5078978;28;20537;-69
2023/06/24 00:52:56;;;;;;;0.20;0.20;;;;;;;16.30;91.87;99026.28;5081138;28;20370;-70
2023/06/24 00:55:22;;;;;;;0.13;0.13;;;;;;;16.25;91.84;99019.03;5082363;28;20522;-71
2023/06/24 00:57:53;;;;;;;0.20;0.20;;;;;;;16.23;92.27;99024.03;5099613;28;20057;-71
2023/06/24 01:00:22;;;;;;;0.20;0.20;;;;;;;16.22;92.37;99018.88;5073258;28;20043;-71
2023/06/24 01:02:50;;;;;;;0.20;0.20;;;;;;;16.21;92.61;99020.81;5102021;28;20447;-71
2023/06/24 01:05:16;;;;;;;0.20;0.20;;;;;;;16.20;92.77;99021.94;5027658;28;20519;-71
2023/06/24 01:07:43;;;;;;;0.20;0.20;;;;;;;16.24;93.01;99022.94;5079640;28;20063;-71
2023/06/24 01:10:12;;;;;;;0.10;0.10;;;;;;;16.34;92.34;99032.78;5081705;28;20044;-71
2023/06/24 01:12:40;;;;;;;0.20;0.20;;;;;;;16.46;91.96;99023.78;5068321;28;20051;-70
2023/06/24 01:15:11;;;;;;;0.20;0.20;;;;;;;16.47;89.93;99024.56;5068994;28;20404;-70
2023/06/24 01:17:44;;;;;;;0.20;0.20;;;;;;;16.46;87.07;99018.25;5079564;28;20046;-70
2023/06/24 01:20:18;;;;;;;0.13;0.13;;;;;;;16.39;86.92;99023.47;5081150;28;20051;-71
2023/06/24 01:23:20;;;;;;;0.20;0.20;;;;;;;16.34;87.04;99034.69;5080909;28;20055;-70
2023/06/24 01:26:24;;;;;;;0.20;0.20;;;;;;;16.26;86.84;99023.41;5051620;28;20406;-70
2023/06/24 01:29:21;;;;;;;0.20;0.20;;;;;;;16.17;87.32;99030.88;5085467;28;20044;-70
2023/06/24 01:31:53;;;;;;;0.20;0.20;;;;;;;16.13;87.82;99027.19;5062846;28;20053;-68
2023/06/24 01:34:28;;;;;;;0.20;0.20;;;;;;;16.10;87.68;99036.13;5076186;28;20055;-70
2023/06/24 01:37:07;;;;;;;0.10;0.10;;;;;;;16.09;88.15;99032.53;5095797;28;20051;-71
2023/06/24 01:39:42;;;;;;;0.13;0.13;;;;;;;16.13;88.14;99030.72;5066586;28;20048;-70
2023/06/24 01:42:13;;;;;;;0.20;0.20;;;;;;;16.18;87.55;99029.75;5084345;28;20044;-71
2023/06/24 01:44:43;;;;;;;0.20;0.20;;;;;;;16.21;87.11;99044.84;5090891;28;20040;-70
2023/06/24 01:47:15;;;;;;;0.20;0.20;;;;;;;16.10;87.16;99022.34;5084361;28;20109;-71
2023/06/24 01:49:44;;;;;;;0.20;0.20;;;;;;;16.13;86.89;99035.44;5082857;28;20052;-71
2023/06/24 01:52:13;;;;;;;0.20;0.20;;;;;;;16.10;87.21;99036.13;5085419;28;20128;-71
2023/06/24 01:54:40;;;;;;;;;;;;;;;16.10;87.61;99047.94;5085240;28;20510;-70
2023/06/24 01:57:07;;;;;;;0.15;0.15;;;;;;;16.16;87.29;99040.31;5065327;28;19931;-70
2023/06/24 01:59:34;;;;;;;0.13;0.13;;;;;;;16.22;87.13;99043.69;5057098;28;20040;-70
2023/06/24 02:02:02;;;;;;;0.20;0.20;;;;;;;16.26;87.40;99047.41;5069413;28;20098;-71
2023/06/24 02:04:31;;;;;;;0.20;0.20;;;;;;;16.39;86.79;99049.13;5065979;28;20043;-70
2023/06/24 02:07:01;;;;;;;0.20;0.20;;;;;;;16.47;86.36;99054.91;5063048;28;20048;-70
2023/06/24 02:09:30;;;;;;;0.20;0.20;;;;;;;16.58;86.29;99042.34;5071528;28;20353;-70
2023/06/24 02:11:58;;;;;;;0.20;0.20;;;;;;;16.62;85.21;99040.53;5049291;28;20524;-71
2023/06/24 02:14:26;;;;;;;0.17;0.17;;;;;;;16.63;84.11;99042.19;5056940;28;20449;-71
2023/06/24 02:16:56;;;;;;;0.20;0.20;;;;;;;16.62;83.08;99042.50;5068618;28;20052;-71
2023/06/24 02:19:24;;;;;;;0.20;0.20;;;;;;;16.62;83.32;99042.50;5085684;28;20060;-71
2023/06/24 02:21:52;;;;;;;0.20;0.20;;;;;;;16.71;82.55;99043.28;5065208;28;20514;-70
2023/06/24 02:24:21;;;;;;;0.20;0.20;;;;;;;16.82;81.81;99044.47;5066989;28;20437;-70
2023/06/24 02:26:48;;;;;;;0.20;0.20;;;;;;;16.91;81.06;99038.09;5095700;28;20290;-70
2023/06/24 02:29:15;;;;;;;0.20;0.20;;;;;;;16.99;79.97;99037.25;5095458;28;20112;-71
2023/06/24 02:31:41;;;;;;;0.20;0.20;;;;;;;16.95;79.65;99039.03;5080464;28;20559;-70
2023/06/24 02:34:07;;;;;;;0.20;0.20;;;;;;;16.99;79.57;99043.59;5086192;28;20059;-70
2023/06/24 02:36:36;;;;;;;0.20;0.20;;;;;;;17.01;79.20;99040.47;5082734;28;20079;-70
2023/06/24 02:39:04;;;;;;;0.20;0.20;;;;;;;16.95;78.75;99047.31;5066385;28;20063;-71
2023/06/24 02:41:30;;;;;;;0.30;0.30;;;;;;;16.94;79.02;99056.75;5082826;28;20056;-71
2023/06/24 02:43:56;;;;;;;0.20;0.20;;;;;;;16.92;79.74;99050.75;5077915;28;20074;-70
2023/06/24 02:46:24;;;;;;;0.20;0.20;;;;;;;16.95;80.42;99050.91;5087531;28;20138;-71
2023/06/24 02:48:52;;;;;;;0.20;0.20;;;;;;;17.02;80.73;99058.69;5101190;28;20236;-71
2023/06/24 02:51:19;;;;;;;0.20;0.20;;;;;;;16.93;80.64;99058.69;5083156;28;20113;-71
2023/06/24 02:53:46;;;;;;;;;;;;;;;16.80;82.12;99049.53;5083448;28;20134;-70
2023/06/24 02:56:20;;;;;;;0.22;0.22;;;;;;;16.76;82.20;99051.34;5085207;28;19924;-69
2023/06/24 02:58:47;;;;;;;0.20;0.20;;;;;;;16.76;82.10;99048.59;5081246;28;20048;-71
2023/06/24 03:01:24;;;;;;;0.20;0.20;;;;;;;16.78;81.59;99057.34;5071281;28;20582;-69
2023/06/24 03:03:53;;;;;;;0.30;0.30;;;;;;;16.78;81.88;99053.75;5065493;28;20074;-71
2023/06/24 03:06:20;;;;;;;0.20;0.20;;;;;;;16.79;80.89;99058.16;5082548;28;20495;-71
2023/06/24 03:08:48;;;;;;;0.20;0.20;;;;;;;16.82;80.20;99063.00;5079241;28;20097;-71
2023/06/24 03:11:17;;;;;;;0.20;0.20;;;;;;;16.85;79.58;99054.84;5100184;28;20119;-71
2023/06/24 03:13:44;;;;;;;0.20;0.20;;;;;;;16.86;78.92;99050.16;5082671;28;20101;-71
2023/06/24 03:16:17;;;;;;;0.20;0.20;;;;;;;16.87;78.05;99058.09;5090233;28;20059;-71
2023/06/24 03:19:02;;;;;;;0.20;0.20;;;;;;;16.88;78.33;99056.13;5050191;28;20091;-71
2023/06/24 03:21:28;;;;;;;0.20;0.20;;;;;;;16.85;77.76;99062.34;5066080;28;20048;-71
2023/06/24 03:24:00;;;;;;;0.20;0.20;;;;;;;16.79;77.92;99058.94;5063906;28;20537;-70
2023/06/24 03:26:34;;;;;;;0.28;0.28;;;;;;;16.80;77.82;99054.25;5068608;28;20077;-71
2023/06/24 03:29:01;;;;;;;0.20;0.20;;;;;;;16.78;77.79;99053.75;5085178;28;20063;-70
2023/06/24 03:31:27;;;;;;;0.20;0.20;;;;;;;16.74;78.14;99056.41;5087051;28;20138;-69
2023/06/24 03:33:54;;;;;;;0.20;0.20;;;;;;;16.71;78.78;99052.34;5079475;28;20426;-70
2023/06/24 03:36:20;;;;;;;0.20;0.20;;;;;;;16.70;78.77;99055.44;5081828;28;20054;-70
2023/06/24 03:38:47;;;;;;;0.20;0.20;;;;;;;16.65;78.93;99064.72;5068812;28;20148;-72
2023/06/24 03:41:13;;;;;;;0.20;0.20;;;;;;;16.65;78.92;99063.91;5064968;28;20086;-71
2023/06/24 03:43:41;;;;;;;0.20;0.20;;;;;;;16.69;78.91;99068.44;5082276;28;20077;-70
2023/06/24 03:46:08;;;;;;;0.20;0.20;;;;;;;16.68;78.29;99061.31;5047929;28;20093;-72
2023/06/24 03:48:35;;;;;;;0.20;0.20;;;;;;;16.53;78.37;99068.19;5081168;28;20403;-70
2023/06/24 03:51:01;;;;;;;0.20;0.20;;;;;;;16.45;78.95;99075.38;5081948;28;20129;-70
2023/06/24 03:53:29;;;;;;;0.20;0.20;;;;;;;16.39;79.06;99081.41;5079398;28;20052;-69
2023/06/24 03:55:55;;;;;;;0.20;0.20;;;;;;;16.36;78.76;99073.78;5079661;28;20060;-69
2023/06/24 03:58:22;;;;;;;0.20;0.20;;;;;;;16.46;78.67;99073.44;5082376;28;20064;-72
2023/06/24 04:00:50;;;;;;;0.30;0.30;;;;;;;16.56;77.67;99077.75;5068526;28;20400;-70
2023/06/24 04:03:19;;;;;;;0.20;0.20;;;;;;;16.77;77.12;99082.50;5098781;28;20062;-71
2023/06/24 04:05:46;;;;;;;0.25;0.25;;;;;;;16.95;75.98;99067.47;5070310;28;20546;-71
2023/06/24 04:08:12;;;;;;;0.20;0.20;;;;;;;17.03;74.71;99068.59;5080529;28;20071;-70
2023/06/24 04:10:38;;;;;;;0.20;0.20;;;;;;;17.01;74.93;99088.22;5082797;28;20052;-71
2023/06/24 04:13:05;;;;;;;0.20;0.20;;;;;;;17.08;74.86;99076.66;5087408;28;20052;-71
2023/06/24 04:15:31;;;;;;;0.20;0.20;;;;;;;17.05;74.17;99082.84;5079180;28;20506;-71
2023/06/24 04:17:59;;;;;;;0.20;0.20;;;;;;;16.93;74.62;99082.75;5082253;28;20093;-71
2023/06/24 04:20:26;;;;;;;0.20;0.20;;;;;;;16.81;75.45;99075.19;5079450;28;20095;-71
2023/06/24 04:22:52;;;;;;;0.20;0.20;;;;;;;16.59;75.46;99083.44;5062971;28;20709;-71
2023/06/24 04:25:18;;;;;;;0.20;0.20;;;;;;;16.53;76.54;99095.78;5085023;28;20052;-70
2023/06/24 04:27:45;;;;;;;0.20;0.20;;;;;;;16.40;76.38;99083.03;5080259;28;20048;-72
2023/06/24 04:30:12;;;;;;;0.20;0.20;;;;;;;16.39;76.82;99097.94;5063929;28;20494;-70
2023/06/24 04:32:38;;;;;;;0.20;0.20;;;;;;;16.34;77.11;99098.97;5079762;28;20051;-69
2023/06/24 04:35:07;;;;;;;0.30;0.30;;;;;;;16.29;77.21;99099.94;5083049;28;20063;-69
2023/06/24 04:37:35;;;;;;;0.20;0.20;;;;;;;16.24;77.39;99107.59;5065338;28;20052;-70
2023/06/24 04:40:01;;;;;;;0.20;0.20;;;;;;;16.25;78.01;99111.97;5062811;28;20051;-70
2023/06/24 04:42:30;;;;;;;0.20;0.20;;;;;;;16.22;77.46;99107.13;5091276;28;20785;-70
2023/06/24 04:44:56;;;;;;;0.20;0.20;;;;;;;16.19;77.59;99096.75;5081081;28;20044;-70
2023/06/24 04:47:22;;;;;;;0.20;0.20;;;;;;;16.27;77.70;99118.78;5083761;28;20637;-72
2023/06/24 04:49:48;;;;;;;0.20;0.20;;;;;;;16.40;77.66;99119.69;5082108;28;20044;-70
2023/06/24 04:52:16;;;;;;;0.20;0.20;;;;;;;16.52;77.14;99116.22;5071073;28;20575;-70
2023/06/24 04:54:42;;;;;;;0.20;0.20;;;;;;;16.61;76.79;99116.19;5093825;28;20036;-69
2023/06/24 04:57:22;;;;;;;0.20;0.20;;;;;;;16.67;76.31;99116.81;5088792;28;20735;-70
2023/06/24 04:59:48;;;;;;;0.20;0.20;;;;;;;16.66;75.62;99117.97;5079972;28;20126;-71
2023/06/24 05:02:14;;;;;;;0.20;0.20;;;;;;;16.66;75.85;99115.19;5079013;28;20162;-70
2023/06/24 05:04:41;;;;;;;0.20;0.20;;;;;;;16.64;75.61;99121.06;5073030;28;20125;-70
2023/06/24 05:07:07;;;;;;;0.30;0.30;;;;;;;16.63;75.74;99121.38;5074669;28;20048;-71
2023/06/24 05:09:37;;;;;;;0.20;0.20;;;;;;;16.62;75.54;99126.09;5055600;28;20056;-71
2023/06/24 05:12:04;;;;;;;0.30;0.30;;;;;;;16.57;76.25;99127.09;5075484;28;20040;-70
2023/06/24 05:14:30;;;;;;;0.20;0.20;;;;;;;16.40;76.01;99129.94;5082671;28;20117;-70
2023/06/24 05:16:56;;;;;;;0.20;0.20;;;;;;;16.26;76.76;99114.41;5087153;28;20066;-71
2023/06/24 05:19:23;;;;;;;0.20;0.20;;;;;;;16.23;77.13;99131.59;5089170;28;20109;-72
2023/06/24 05:21:49;;;;;;;0.20;0.20;;;;;;;16.26;77.18;99121.84;5090130;28;20127;-71
2023/06/24 05:24:15;;;;;;;0.20;0.20;;;;;;;16.37;77.21;99130.56;5093136;28;20117;-70
2023/06/24 05:26:45;;;;;;;0.20;0.20;;;;;;;16.46;76.60;99120.34;5080614;28;20047;-71
2023/06/24 05:29:11;;;;;;;0.30;0.30;;;;;;;16.57;76.56;99118.84;5079928;28;20044;-71
2023/06/24 05:31:40;;;;;;;0.20;0.20;;;;;;;16.67;75.97;99116.81;5077382;28;20037;-72
2023/06/24 05:34:07;;;;;;;0.20;0.20;;;;;;;16.68;76.08;99115.69;5062116;28;20051;-72
2023/06/24 05:36:33;;;;;;;0.20;0.20;;;;;;;16.73;76.00;99108.03;5064536;28;20054;-71
2023/06/24 05:38:59;;;;;;;0.20;0.20;;;;;;;16.71;75.34;99113.06;5082276;28;20048;-71
2023/06/24 05:41:25;;;;;;;0.20;0.20;;;;;;;16.65;75.35;99114.41;5081701;28;20323;-72
2023/06/24 05:44:03;;;;;;;0.20;0.20;;;;;;;16.63;75.40;99122.22;5081951;28;20051;-71
2023/06/24 05:46:29;;;;;;;0.20;0.20;;;;;;;16.52;75.71;99116.22;5078503;28;20143;-71
2023/06/24 05:48:55;;;;;;;0.20;0.20;;;;;;;16.47;76.55;99123.88;5086619;28;20109;-71
2023/06/24 05:51:21;;;;;;;0.20;0.20;;;;;;;16.53;76.55;99128.09;5085829;28;20472;-71
2023/06/24 05:53:47;;;;;;;0.20;0.20;;;;;;;16.55;76.57;99120.28;5088149;28;20418;-71
2023/06/24 05:56:14;;;;;;;0.20;0.20;;;;;;;16.65;76.83;99117.16;5072401;28;20051;-71
2023/06/24 05:58:40;;;;;;;0.20;0.20;;;;;;;16.75;76.49;99121.50;5087040;28;20044;-71
2023/06/24 06:01:10;;;;;;;0.20;0.20;;;;;;;16.64;76.18;99112.78;5087946;28;21551;-71
2023/06/24 06:03:36;;;;;;;0.30;0.30;;;;;;;16.67;76.46;99136.13;5095418;28;21024;-71
2023/06/24 06:06:03;;;;;;;0.20;0.20;;;;;;;16.59;76.54;99133.09;5086577;28;20048;-71
2023/06/24 06:08:29;;;;;;;0.20;0.20;;;;;;;16.64;76.67;99140.41;5088418;28;20138;-71
2023/06/24 06:10:55;;;;;;;0.22;0.22;;;;;;;16.75;76.63;99140.00;5089901;28;20048;-71
2023/06/24 06:13:21;;;;;;;0.20;0.20;;;;;;;16.77;76.19;99133.00;5088433;28;20031;-71
2023/06/24 06:15:47;;;;;;;0.20;0.20;;;;;;;16.80;76.24;99140.63;5093525;28;20056;-71
2023/06/24 06:18:15;;;;;;;0.20;0.20;;;;;;;16.84;75.94;99138.81;5090809;28;20048;-71
2023/06/24 06:20:41;;;;;;;0.30;0.30;;;;;;;16.89;75.14;99143.34;5097980;28;20048;-71
2023/06/24 06:23:07;;;;;;;0.25;0.25;;;;;;;17.00;75.18;99144.59;5095254;28;20055;-71
2023/06/24 06:25:34;;;;;;;0.20;0.20;;;;;;;17.15;74.87;99143.19;5086491;28;20048;-71
2023/06/24 06:28:00;;;;;;;0.30;0.30;;;;;;;17.20;74.20;99131.16;5067926;28;20036;-71
2023/06/24 06:30:27;;;;;;;0.30;0.30;;;;;;;17.21;74.26;99157.63;5081412;28;20048;-71
2023/06/24 06:32:53;;;;;;;0.20;0.20;;;;;;;17.27;74.10;99141.66;5075584;28;20165;-71
2023/06/24 06:35:21;;;;;;;0.20;0.20;;;;;;;17.27;73.62;99138.91;5090517;28;20036;-71
2023/06/24 06:37:52;;;;;;;0.30;0.30;;;;;;;17.32;73.99;99141.47;5090244;28;20043;-71
2023/06/24 06:40:18;;;;;;;0.20;0.20;;;;;;;17.39;73.40;99144.50;5084251;28;20051;-71
2023/06/24 06:42:45;;;;;;;0.30;0.30;;;;;;;17.35;72.98;99139.97;5084657;28;20079;-70
2023/06/24 06:45:11;;;;;;;0.30;0.30;;;;;;;17.21;73.76;99140.25;5083301;28;20097;-72
2023/06/24 06:47:37;;;;;;;0.30;0.30;;;;;;;17.10;74.25;99143.41;5084153;28;20055;-71
2023/06/24 06:50:04;;;;;;;0.30;0.30;;;;;;;16.99;74.38;99144.94;5101458;28;20047;-72
2023/06/24 06:52:32;;;;;;;0.20;0.20;;;;;;;16.93;74.96;99149.78;5089978;27;20134;-72
2023/06/24 06:54:58;;;;;;;0.30;0.30;;;;;;;16.90;75.27;99146.91;5084393;28;20414;-71
2023/06/24 06:57:25;;;;;;;0.20;0.20;;;;;;;16.88;75.02;99150.00;5083367;28;20500;-71
2023/06/24 06:59:51;;;;;;;0.30;0.30;;;;;;;16.91;74.76;99152.09;5085348;28;20044;-72
2023/06/24 07:02:17;;;;;;;0.20;0.20;;;;;;;17.00;74.66;99152.88;5085901;28;20105;-72
2023/06/24 07:04:43;;;;;;;0.25;0.25;;;;;;;17.10;74.67;99156.41;5083948;28;20040;-72
2023/06/24 07:07:10;;;;;;;0.20;0.20;;;;;;;17.19;74.28;99150.84;5082065;28;20127;-71
2023/06/24 07:09:37;;;;;;;0.30;0.30;;;;;;;17.18;74.26;99158.31;5082076;28;20043;-71
2023/06/24 07:12:04;;;;;;;0.20;0.20;;;;;;;17.10;73.72;99154.44;5083384;28;20040;-71
2023/06/24 07:14:31;;;;;;;0.30;0.30;;;;;;;17.07;73.79;99160.66;5086755;28;20238;-71
2023/06/24 07:16:58;;;;;;;0.20;0.20;;;;;;;16.96;74.31;99153.84;5084500;28;20479;-71
2023/06/24 07:19:24;;;;;;;;;;;;;;;17.00;74.65;99157.59;5085453;28;20054;-71
2023/06/24 07:21:51;;;;;;;0.53;0.20;;;;;;;17.04;74.60;99154.97;5082753;28;20416;-72
2023/06/24 07:24:17;;;;;;;0.20;0.20;;;;;;;17.09;74.28;99158.34;5086220;28;20092;-70
2023/06/24 07:26:45;;;;;;;0.20;0.20;;;;;;;17.20;74.09;99152.47;5092996;28;20074;-71
2023/06/24 07:29:11;;;;;;;0.30;0.30;;;;;;;17.35;73.80;99160.16;5083895;28;20044;-71
2023/06/24 07:31:38;;;;;;;0.22;0.22;;;;;;;17.44;72.68;99157.31;5082813;28;20044;-71
2023/06/24 07:34:04;;;;;;;0.20;0.20;;;;;;;17.42;73.22;99168.69;5079181;28;20044;-72
2023/06/24 07:36:31;;;;;;;0.30;0.30;;;;;;;17.50;73.31;99166.22;5084491;28;20051;-71
2023/06/24 07:38:57;;;;;;;0.20;0.20;;;;;;;17.57;72.62;99163.72;5065326;28;20828;-71
2023/06/24 07:41:24;;;;;;;0.40;0.30;;;;;;;17.58;72.43;99157.03;5080341;28;20055;-71
2023/06/24 07:43:51;;;;;;;0.20;0.20;;;;;;;17.55;72.59;99155.75;5049168;28;20044;-71
2023/06/24 07:46:17;;;;;;;0.20;0.20;;;;;;;17.36;72.96;99147.13;5081980;28;20302;-71
2023/06/24 07:48:44;;;;;;;0.20;0.20;;;;;;;17.32;73.12;99179.34;5083001;28;20074;-71
2023/06/24 07:51:10;;;;;;;0.20;0.20;;;;;;;17.25;73.16;99174.34;5090839;28;20093;-72
2023/06/24 07:53:38;;;;;;;0.20;0.20;;;;;;;17.21;73.31;99176.97;5082856;28;20078;-71
2023/06/24 07:56:08;;;;;;;0.25;0.25;;;;;;;17.10;74.23;99184.03;5065967;28;20060;-71
2023/06/24 07:58:37;;;;;;;0.20;0.20;;;;;;;17.14;73.94;99183.00;5063294;28;20076;-72
2023/06/24 08:01:11;;;;;;;0.20;0.20;;;;;;;17.25;73.75;99186.22;5048387;28;20040;-72
2023/06/24 08:03:43;;;;;;;0.20;0.20;;;;;;;17.36;73.43;99199.63;5056545;28;20086;-72
2023/06/24 08:06:14;;;;;;;0.20;0.20;;;;;;;17.45;73.14;99205.91;5081818;28;20075;-72
2023/06/24 08:08:46;;;;;;;0.30;0.30;;;;;;;17.50;72.96;99193.84;5056547;28;20039;-72
2023/06/24 08:11:13;;;;;;;0.30;0.30;;;;;;;17.53;72.87;99193.97;5064712;28;20043;-72
2023/06/24 08:13:47;;;;;;;0.25;0.25;;;;;;;17.52;73.17;99202.63;5049400;28;20512;-71
2023/06/24 08:16:20;;;;;;;0.63;0.40;;;;;;;17.58;72.88;99196.56;5061199;28;20053;-72
2023/06/24 08:18:46;;;;;;;0.20;0.20;;;;;;;17.60;72.81;99204.50;5089436;28;20586;-72
2023/06/24 08:21:14;;;;;;;0.20;0.20;;;;;;;17.58;72.80;99196.56;5080707;28;20051;-71
2023/06/24 08:23:45;;;;;;;0.20;0.20;;;;;;;17.49;72.75;99217.91;5064760;28;20040;-71
2023/06/24 08:26:13;;;;;;;0.20;0.20;;;;;;;17.39;72.98;99205.28;5068136;28;20036;-72
2023/06/24 08:28:40;;;;;;;0.20;0.20;;;;;;;17.39;73.62;99210.00;5068599;28;20042;-71
2023/06/24 08:31:12;;;;;;;0.20;0.20;;;;;;;17.34;73.91;99208.25;5066941;28;20059;-71
2023/06/24 08:33:52;;;;;;;0.20;0.20;;;;;;;17.35;73.83;99204.34;5046375;28;20211;-71
2023/06/24 08:36:27;;;;;;;0.20;0.20;;;;;;;17.28;74.02;99206.81;5045032;28;20041;-72
2023/06/24 08:38:53;;;;;;;0.20;0.20;;;;;;;17.25;74.45;99224.06;5086971;28;20043;-71
2023/06/24 08:41:20;;;;;;;0.25;0.25;;;;;;;17.23;74.57;99221.63;5081649;28;20224;-72
2023/06/24 08:43:46;;;;;;;0.20;0.20;;;;;;;17.25;74.62;99222.13;5082316;28;20406;-71
2023/06/24 08:46:15;;;;;;;0.20;0.20;;;;;;;17.30;74.51;99223.88;5098998;28;20059;-71
2023/06/24 08:48:43;;;;;;;0.20;0.20;;;;;;;17.39;74.46;99219.09;5082521;28;20052;-71
2023/06/24 08:51:14;;;;;;;0.25;0.25;;;;;;;17.49;73.78;99234.47;5085522;28;20101;-71
2023/06/24 08:53:46;;;;;;;0.22;0.22;;;;;;;17.44;73.76;99216.13;5083123;28;20561;-71
2023/06/24 08:56:14;;;;;;;0.20;0.20;;;;;;;17.42;73.76;99234.22;5063801;28;20129;-71
2023/06/24 08:58:40;;;;;;;0.30;0.30;;;;;;;17.41;74.26;99238.91;5097727;28;20043;-72
2023/06/24 09:01:07;;;;;;;0.20;0.20;;;;;;;17.39;74.06;99235.69;5098568;28;20105;-72
2023/06/24 09:03:33;;;;;;;0.20;0.20;;;;;;;17.35;74.77;99244.97;5097798;28;20050;-72
2023/06/24 09:05:59;;;;;;;0.20;0.20;;;;;;;17.32;74.51;99240.13;5079809;28;20146;-71
2023/06/24 09:08:27;;;;;;;0.20;0.20;;;;;;;17.28;74.54;99251.03;5079090;28;20554;-71
2023/06/24 09:10:55;;;;;;;0.20;0.20;;;;;;;17.23;74.84;99246.50;5085622;28;20043;-71
2023/06/24 09:13:27;;;;;;;0.28;0.22;;;;;;;17.21;75.45;99251.53;5066400;28;20063;-71
2023/06/24 09:15:53;;;;;;;0.20;0.20;;;;;;;17.20;75.36;99247.16;5071911;28;20563;-71
2023/06/24 09:18:19;;;;;;;0.20;0.20;;;;;;;17.20;75.34;99252.69;5080202;28;20044;-71
2023/06/24 09:20:49;;;;;;;0.20;0.20;;;;;;;17.21;75.49;99248.78;5091133;28;20048;-71
2023/06/24 09:23:17;;;;;;;0.30;0.30;;;;;;;17.26;75.10;99256.91;5074226;28;20092;-71
2023/06/24 09:25:55;;;;;;;0.20;0.20;;;;;;;17.27;75.08;99258.50;5100746;28;20059;-71
2023/06/24 09:28:21;;;;;;;0.25;0.25;;;;;;;17.25;75.22;99252.50;5083125;28;20047;-71
2023/06/24 09:30:47;;;;;;;0.20;0.20;;;;;;;17.23;74.94;99260.31;5080349;28;20527;-71
2023/06/24 09:33:13;;;;;;;0.20;0.20;;;;;;;17.25;75.07;99260.81;5080562;28;20113;-71
2023/06/24 09:35:42;;;;;;;0.30;0.30;;;;;;;17.39;74.45;99271.59;5083506;28;20193;-71
2023/06/24 09:38:08;;;;;;;0.30;0.30;;;;;;;17.46;74.19;99267.50;5080518;28;20075;-71
2023/06/24 09:40:36;;;;;;;0.20;0.20;;;;;;;17.43;73.88;99275.31;5075686;28;20502;-70
2023/06/24 09:43:04;;;;;;;0.20;0.20;;;;;;;17.44;74.13;99279.69;5078150;28;20043;-71
2023/06/24 09:45:30;;;;;;;0.20;0.20;;;;;;;17.42;73.94;99293.03;5082507;28;20040;-71
2023/06/24 09:48:00;;;;;;;0.20;0.20;;;;;;;17.31;73.77;99289.03;5089141;28;20492;-71
2023/06/24 09:50:26;;;;;;;0.20;0.20;;;;;;;17.24;74.43;99288.75;5096736;28;20033;-71
2023/06/24 09:52:53;;;;;;;0.20;0.20;;;;;;;17.22;74.75;99294.59;5067289;28;20059;-71
2023/06/24 09:55:19;;;;;;;0.20;0.20;;;;;;;17.15;74.94;99297.06;5077107;28;20074;-71
2023/06/24 09:57:50;;;;;;;0.20;0.20;;;;;;;17.06;75.82;99302.63;5087942;28;20048;-72
2023/06/24 10:00:19;;;;;;;0.20;0.20;;;;;;;17.00;76.33;99303.94;5085168;28;20071;-71
2023/06/24 10:02:46;;;;;;;0.20;0.20;;;;;;;16.94;76.58;99316.28;5083705;28;20055;-72
2023/06/24 10:05:13;;;;;;;0.20;0.20;;;;;;;16.96;76.81;99317.59;5073029;28;20771;-71
2023/06/24 10:07:41;;;;;;;0.22;0.22;;;;;;;16.99;76.94;99316.94;5097754;28;20642;-72
2023/06/24 10:10:11;;;;;;;0.20;0.20;;;;;;;17.06;77.01;99324.72;5066679;28;20602;-71
2023/06/24 10:12:37;;;;;;;0.30;0.30;;;;;;;17.12;76.96;99320.63;5086213;28;20135;-72
2023/06/24 10:15:05;;;;;;;0.30;0.30;;;;;;;17.28;76.27;99325.59;5067429;28;20066;-71
2023/06/24 10:17:37;;;;;;;0.20;0.20;;;;;;;17.39;75.97;99315.00;5083946;28;20048;-72
2023/06/24 10:20:07;;;;;;;0.20;0.20;;;;;;;17.40;75.83;99324.91;5094777;28;20051;-72
2023/06/24 10:22:36;;;;;;;0.20;0.20;;;;;;;17.52;75.28;99324.22;5080548;28;20533;-72
2023/06/24 10:25:07;;;;;;;0.20;0.20;;;;;;;17.61;74.35;99329.69;5086414;28;20043;-72
2023/06/24 10:27:39;;;;;;;0.30;0.30;;;;;;;17.57;74.72;99335.88;5083460;28;20542;-71
2023/06/24 10:30:08;;;;;;;0.20;0.20;;;;;;;17.52;74.61;99335.25;5084189;28;20090;-72
2023/06/24 10:32:42;;;;;;;0.30;0.30;;;;;;;17.41;75.03;99332.06;5098055;28;20056;-72
2023/06/24 10:35:23;;;;;;;0.20;0.20;;;;;;;17.32;75.39;99340.38;5095006;28;20061;-72
2023/06/24 10:37:55;;;;;;;0.20;0.20;;;;;;;17.25;75.61;99338.16;5097721;28;20040;-72
2023/06/24 10:40:35;;;;;;;0.22;0.22;;;;;;;17.21;75.71;99328.88;5087976;28;20043;-71
2023/06/24 10:43:01;;;;;;;0.20;0.20;;;;;;;17.20;75.62;99334.75;4728193;27;10000616;-71
2023/06/24 10:45:28;;;;;;;0.63;0.30;;;;;;;17.19;75.51;99335.91;5060768;28;20434;-72
2023/06/24 10:48:03;;;;;;;0.30;0.30;;;;;;;17.27;75.51;99340.56;5077910;28;20886;-71
2023/06/24 10:50:29;;;;;;;0.25;0.25;;;;;;;17.34;74.74;99346.41;5096387;28;20109;-71
2023/06/24 10:52:56;;;;;;;0.20;0.20;;;;;;;17.26;74.83;99337.00;5087573;28;20089;-71
2023/06/24 10:55:24;;;;;;;0.20;0.20;;;;;;;17.37;74.98;99344.91;5081188;28;20044;-71
2023/06/24 10:57:51;;;;;;;0.20;0.20;;;;;;;17.47;74.79;99354.78;5081141;28;20048;-71
2023/06/24 11:00:17;;;;;;;0.30;0.30;;;;;;;17.50;74.45;99349.41;5081374;28;20138;-71
2023/06/24 11:02:44;;;;;;;0.30;0.30;;;;;;;17.44;74.51;99359.81;5080081;28;20442;-71
2023/06/24 11:05:12;;;;;;;;;;;;;;;17.53;74.43;99361.75;5082446;28;20446;-72
2023/06/24 11:07:38;;;;;;;;;;;;;;;17.57;74.55;99366.28;5087894;28;20323;-71
2023/06/24 11:10:06;;;;;;;0.30;0.30;;;;;;;17.49;74.09;99371.88;5074202;28;20022;-72
2023/06/24 11:12:34;;;;;;;0.32;0.30;;;;;;;17.43;74.71;99374.00;5079668;28;20044;-72
2023/06/24 11:15:03;;;;;;;0.20;0.20;;;;;;;17.39;74.51;99371.06;5084336;28;20069;-70
2023/06/24 11:17:32;;;;;;;0.20;0.20;;;;;;;17.30;75.26;99381.34;5088153;28;20052;-71
2023/06/24 11:19:58;;;;;;;0.20;0.20;;;;;;;17.21;75.57;99381.38;5097861;28;20597;-70
2023/06/24 11:22:27;;;;;;;0.20;0.20;;;;;;;17.14;76.00;99381.88;5095210;28;20127;-71
2023/06/24 11:24:54;;;;;;;0.30;0.30;;;;;;;17.10;75.79;99389.19;5081877;28;20048;-70
2023/06/24 11:27:24;;;;;;;;;;;;;;;17.03;75.95;99396.38;5093425;28;20089;-70
2023/06/24 11:29:51;;;;;;;0.20;0.20;;;;;;;16.99;76.28;99397.03;5085651;28;19956;-71
2023/06/24 11:32:17;;;;;;;0.20;0.20;;;;;;;17.05;76.17;99394.91;5082637;28;20147;-71
2023/06/24 11:34:44;;;;;;;0.20;0.20;;;;;;;17.13;75.93;99394.06;5064357;28;20056;-71
2023/06/24 11:37:12;;;;;;;0.30;0.30;;;;;;;17.32;75.62;99401.16;5087566;28;20298;-72
2023/06/24 11:39:40;;;;;;;0.30;0.30;;;;;;;17.43;75.11;99399.66;5089240;28;20062;-71